sensor_id;sensor_type;location;lat;lon;timestamp;pressure;altitude;pressure_sealevel;temperature;humidity
18569;BME280;14780;48.316;-1.050;2023-09-12T00:00:43;98891.03;;;26.18;54.00
18569;BME280;14780;48.316;-1.050;2023-09-12T00:03:28;98883.91;;;26.17;53.95
18569;BME280;14780;48.316;-1.050;2023-09-12T00:06:13;98880.13;;;26.13;54.05
18569;BME280;14780;48.316;-1.050;2023-09-12T00:08:57;98891.41;;;26.12;53.87
18569;BME280;14780;48.316;-1.050;2023-09-12T00:11:42;98888.88;;;26.15;53.93
18569;BME280;14780;48.316;-1.050;2023-09-12T00:14:27;98885.38;;;26.10;54.23
18569;BME280;14780;48.316;-1.050;2023-09-12T00:17:12;98883.41;;;26.15;53.92
18569;BME280;14780;48.316;-1.050;2023-09-12T00:19:56;98883.41;;;26.15;53.89
18569;BME280;14780;48.316;-1.050;2023-09-12T00:22:41;98884.47;;;26.14;54.02
18569;BME280;14780;48.316;-1.050;2023-09-12T00:25:25;98887.47;;;26.18;53.70
18569;BME280;14780;48.316;-1.050;2023-09-12T00:28:10;98886.72;;;26.12;53.88
18569;BME280;14780;48.316;-1.050;2023-09-12T00:30:54;98887.78;;;26.16;53.81
18569;BME280;14780;48.316;-1.050;2023-09-12T00:33:39;98884.19;;;26.16;53.66
18569;BME280;14780;48.316;-1.050;2023-09-12T00:36:23;98884.19;;;26.16;53.49
18569;BME280;14780;48.316;-1.050;2023-09-12T00:39:08;98881.47;;;26.16;53.59
18569;BME280;14780;48.316;-1.050;2023-09-12T00:41:53;98874.63;;;26.13;53.79
18569;BME280;14780;48.316;-1.050;2023-09-12T00:44:37;98880.13;;;26.13;53.61
18569;BME280;14780;48.316;-1.050;2023-09-12T00:47:23;98883.72;;;26.09;53.74
18569;BME280;14780;48.316;-1.050;2023-09-12T00:50:09;98879.09;;;26.09;53.75
18569;BME280;14780;48.316;-1.050;2023-09-12T00:52:54;98870.25;;;26.12;53.77
18569;BME280;14780;48.316;-1.050;2023-09-12T00:55:45;98872.47;;;26.10;53.73
18569;BME280;14780;48.316;-1.050;2023-09-12T00:58:31;98865.88;;;26.11;53.62
18569;BME280;14780;48.316;-1.050;2023-09-12T01:01:15;98867.78;;;26.11;53.61
18569;BME280;14780;48.316;-1.050;2023-09-12T01:04:00;98858.53;;;26.07;53.91
18569;BME280;14780;48.316;-1.050;2023-09-12T01:06:46;98851.66;;;26.09;53.59
18569;BME280;14780;48.316;-1.050;2023-09-12T01:09:33;98852.22;;;26.06;53.75
18569;BME280;14780;48.316;-1.050;2023-09-12T01:12:18;98857.19;;;26.04;53.95
18569;BME280;14780;48.316;-1.050;2023-09-12T01:15:03;98845.13;;;26.05;53.70
18569;BME280;14780;48.316;-1.050;2023-09-12T01:17:52;98843.47;;;26.04;53.68
18569;BME280;14780;48.316;-1.050;2023-09-12T01:20:37;98842.97;;;26.02;53.62
18569;BME280;14780;48.316;-1.050;2023-09-12T01:26:41;98836.94;;;26.00;53.71
18569;BME280;14780;48.316;-1.050;2023-09-12T01:29:32;98834.16;;;26.05;53.53
18569;BME280;14780;48.316;-1.050;2023-09-12T01:32:19;98835.03;;;26.01;53.83
18569;BME280;14780;48.316;-1.050;2023-09-12T01:35:04;98837.47;;;26.02;53.69
18569;BME280;14780;48.316;-1.050;2023-09-12T01:37:50;98842.19;;;25.97;53.79
18569;BME280;14780;48.316;-1.050;2023-09-12T01:40:50;98853.38;;;26.00;53.54
18569;BME280;14780;48.316;-1.050;2023-09-12T01:43:36;98842.78;;;25.94;53.79
18569;BME280;14780;48.316;-1.050;2023-09-12T01:46:25;98841.97;;;25.93;53.79
18569;BME280;14780;48.316;-1.050;2023-09-12T01:49:11;98838.66;;;25.96;53.56
18569;BME280;14780;48.316;-1.050;2023-09-12T01:51:58;98842.56;;;25.90;53.77
18569;BME280;14780;48.316;-1.050;2023-09-12T01:54:44;98838.19;;;25.89;53.95
18569;BME280;14780;48.316;-1.050;2023-09-12T01:57:29;98847.44;;;25.93;53.75
18569;BME280;14780;48.316;-1.050;2023-09-12T02:00:17;98846.63;;;25.93;53.77
18569;BME280;14780;48.316;-1.050;2023-09-12T02:03:03;98855.66;;;25.93;53.73
18569;BME280;14780;48.316;-1.050;2023-09-12T02:05:48;98857.84;;;25.96;53.48
18569;BME280;14780;48.316;-1.050;2023-09-12T02:08:33;98859.47;;;25.97;53.61
18569;BME280;14780;48.316;-1.050;2023-09-12T02:11:17;98859.22;;;25.94;53.77
18569;BME280;14780;48.316;-1.050;2023-09-12T02:14:02;98859.47;;;25.97;53.34
18569;BME280;14780;48.316;-1.050;2023-09-12T02:16:47;98857.09;;;25.91;53.58
18569;BME280;14780;48.316;-1.050;2023-09-12T02:19:31;98860.63;;;25.91;53.55
18569;BME280;14780;48.316;-1.050;2023-09-12T02:22:16;98850.50;;;25.92;53.41
18569;BME280;14780;48.316;-1.050;2023-09-12T02:25:01;98849.16;;;25.89;53.57
18569;BME280;14780;48.316;-1.050;2023-09-12T02:27:47;98859.09;;;25.80;53.75
18569;BME280;14780;48.316;-1.050;2023-09-12T02:30:31;98856.88;;;25.82;53.65
18569;BME280;14780;48.316;-1.050;2023-09-12T02:33:16;98854.06;;;25.87;53.62
18569;BME280;14780;48.316;-1.050;2023-09-12T02:36:00;98859.84;;;25.86;53.77
18569;BME280;14780;48.316;-1.050;2023-09-12T02:38:45;98857.94;;;25.86;53.62
18569;BME280;14780;48.316;-1.050;2023-09-12T02:41:30;98861.47;;;25.92;53.42
18569;BME280;14780;48.316;-1.050;2023-09-12T02:44:15;98865.03;;;25.87;53.38
18569;BME280;14780;48.316;-1.050;2023-09-12T02:47:00;98866.72;;;25.88;53.45
18569;BME280;14780;48.316;-1.050;2023-09-12T02:49:45;98866.72;;;25.88;53.45
18569;BME280;14780;48.316;-1.050;2023-09-12T02:52:29;98854.63;;;25.84;53.50
18569;BME280;14780;48.316;-1.050;2023-09-12T02:55:14;98856.03;;;25.82;53.59
18569;BME280;14780;48.316;-1.050;2023-09-12T02:57:59;98850.28;;;25.83;53.62
18569;BME280;14780;48.316;-1.050;2023-09-12T03:00:43;98851.38;;;25.82;53.58
18569;BME280;14780;48.316;-1.050;2023-09-12T03:03:28;98854.06;;;25.87;53.52
18569;BME280;14780;48.316;-1.050;2023-09-12T03:06:13;98854.88;;;25.88;53.55
18569;BME280;14780;48.316;-1.050;2023-09-12T03:08:58;98843.91;;;25.88;53.49
18569;BME280;14780;48.316;-1.050;2023-09-12T03:11:43;98844.78;;;25.88;53.44
18569;BME280;14780;48.316;-1.050;2023-09-12T03:14:28;98850.78;;;25.90;53.59
18569;BME280;14780;48.316;-1.050;2023-09-12T03:17:13;98851.09;;;25.84;53.62
18569;BME280;14780;48.316;-1.050;2023-09-12T03:19:58;98854.63;;;25.89;53.59
18569;BME280;14780;48.316;-1.050;2023-09-12T03:22:46;98854.06;;;25.87;53.39
18569;BME280;14780;48.316;-1.050;2023-09-12T03:25:34;98853.59;;;25.80;53.63
18569;BME280;14780;48.316;-1.050;2023-09-12T03:28:20;98847.81;;;25.82;53.52
18569;BME280;14780;48.316;-1.050;2023-09-12T03:31:07;98848.13;;;25.80;53.84
18569;BME280;14780;48.316;-1.050;2023-09-12T03:33:52;98842.28;;;25.87;53.54
18569;BME280;14780;48.316;-1.050;2023-09-12T03:36:37;98848.91;;;25.81;53.70
18569;BME280;14780;48.316;-1.050;2023-09-12T03:39:21;98851.91;;;25.84;53.67
18569;BME280;14780;48.316;-1.050;2023-09-12T03:42:06;98848.38;;;25.84;53.66
18569;BME280;14780;48.316;-1.050;2023-09-12T03:44:51;98851.09;;;25.84;53.55
18569;BME280;14780;48.316;-1.050;2023-09-12T03:47:35;98850.00;;;25.85;53.67
18569;BME280;14780;48.316;-1.050;2023-09-12T03:50:20;98846.97;;;25.86;53.57
18569;BME280;14780;48.316;-1.050;2023-09-12T03:53:05;98853.28;;;25.82;53.63
18569;BME280;14780;48.316;-1.050;2023-09-12T03:55:50;98842.06;;;25.83;53.50
18569;BME280;14780;48.316;-1.050;2023-09-12T03:58:34;98848.38;;;25.84;53.55
18569;BME280;14780;48.316;-1.050;2023-09-12T04:01:19;98844.28;;;25.81;53.53
18569;BME280;14780;48.316;-1.050;2023-09-12T04:04:04;98851.97;;;25.79;53.44
18569;BME280;14780;48.316;-1.050;2023-09-12T04:06:49;98852.53;;;25.76;53.49
18569;BME280;14780;48.316;-1.050;2023-09-12T04:09:33;98851.16;;;25.79;53.47
18569;BME280;14780;48.316;-1.050;2023-09-12T04:12:18;98854.94;;;25.83;53.46
18569;BME280;14780;48.316;-1.050;2023-09-12T04:15:02;98850.88;;;25.80;53.61
18569;BME280;14780;48.316;-1.050;2023-09-12T04:17:47;98862.63;;;25.81;53.66
18569;BME280;14780;48.316;-1.050;2023-09-12T04:20:32;98858.50;;;25.83;53.37
18569;BME280;14780;48.316;-1.050;2023-09-12T04:23:17;98860.47;;;25.78;53.53
18569;BME280;14780;48.316;-1.050;2023-09-12T04:26:02;98852.53;;;25.76;53.58
18569;BME280;14780;48.316;-1.050;2023-09-12T04:28:48;98855.78;;;25.78;53.56
18569;BME280;14780;48.316;-1.050;2023-09-12T04:31:32;98843.75;;;25.79;53.44
18569;BME280;14780;48.316;-1.050;2023-09-12T04:34:17;98843.44;;;25.81;53.24
18569;BME280;14780;48.316;-1.050;2023-09-12T04:37:01;98843.22;;;25.77;53.50
18569;BME280;14780;48.316;-1.050;2023-09-12T04:39:47;98844.28;;;25.81;53.16
18569;BME280;14780;48.316;-1.050;2023-09-12T04:42:32;98836.09;;;25.76;53.33
18569;BME280;14780;48.316;-1.050;2023-09-12T04:45:17;98845.94;;;25.77;53.40
18569;BME280;14780;48.316;-1.050;2023-09-12T04:48:02;98841.56;;;25.76;53.47
18569;BME280;14780;48.316;-1.050;2023-09-12T04:50:47;98845.16;;;25.77;53.48
18569;BME280;14780;48.316;-1.050;2023-09-12T04:53:32;98848.16;;;25.75;53.47
18569;BME280;14780;48.316;-1.050;2023-09-12T04:56:19;98844.31;;;25.76;53.41
18569;BME280;14780;48.316;-1.050;2023-09-12T04:59:04;98845.66;;;25.79;53.20
18569;BME280;14780;48.316;-1.050;2023-09-12T05:01:51;98863.78;;;25.75;53.38
18569;BME280;14780;48.316;-1.050;2023-09-12T05:04:36;98856.38;;;25.75;53.14
18569;BME280;14780;48.316;-1.050;2023-09-12T05:07:20;98855.03;;;25.73;53.31
18569;BME280;14780;48.316;-1.050;2023-09-12T05:10:06;98856.63;;;25.79;53.09
18569;BME280;14780;48.316;-1.050;2023-09-12T05:12:50;98862.38;;;25.77;53.28
18569;BME280;14780;48.316;-1.050;2023-09-12T05:15:35;98857.78;;;25.73;53.43
18569;BME280;14780;48.316;-1.050;2023-09-12T05:18:21;98857.47;;;25.79;53.07
18569;BME280;14780;48.316;-1.050;2023-09-12T05:21:06;98858.94;;;25.67;53.58
18569;BME280;14780;48.316;-1.050;2023-09-12T05:23:51;98853.13;;;25.73;53.42
18569;BME280;14780;48.316;-1.050;2023-09-12T05:26:35;98857.81;;;25.68;53.44
18569;BME280;14780;48.316;-1.050;2023-09-12T05:29:20;98867.13;;;25.72;53.43
18569;BME280;14780;48.316;-1.050;2023-09-12T05:32:05;98859.31;;;25.84;53.18
18569;BME280;14780;48.316;-1.050;2023-09-12T05:34:50;98850.66;;;25.72;53.46
18569;BME280;14780;48.316;-1.050;2023-09-12T05:37:34;98852.03;;;25.74;53.20
18569;BME280;14780;48.316;-1.050;2023-09-12T05:40:20;98847.09;;;25.71;53.36
18569;BME280;14780;48.316;-1.050;2023-09-12T05:43:04;98841.56;;;25.76;53.16
18569;BME280;14780;48.316;-1.050;2023-09-12T05:45:49;98850.91;;;25.75;53.07
18569;BME280;14780;48.316;-1.050;2023-09-12T05:48:34;98855.28;;;25.76;53.18
18569;BME280;14780;48.316;-1.050;2023-09-12T05:51:18;98864.63;;;25.75;53.15
18569;BME280;14780;48.316;-1.050;2023-09-12T05:54:04;98858.06;;;25.71;53.21
18569;BME280;14780;48.316;-1.050;2023-09-12T05:56:49;98862.22;;;25.69;53.26
18569;BME280;14780;48.316;-1.050;2023-09-12T05:59:38;98860.88;;;25.66;53.28
18569;BME280;14780;48.316;-1.050;2023-09-12T06:02:23;98869.38;;;25.65;53.34
18569;BME280;14780;48.316;-1.050;2023-09-12T06:05:08;98876.75;;;25.64;53.55
18569;BME280;14780;48.316;-1.050;2023-09-12T06:07:53;98878.31;;;25.75;53.08
18569;BME280;14780;48.316;-1.050;2023-09-12T06:10:38;98889.22;;;25.80;52.95
18569;BME280;14780;48.316;-1.050;2023-09-12T06:13:22;98894.94;;;25.84;52.94
18569;BME280;14780;48.316;-1.050;2023-09-12T06:16:07;98896.88;;;25.83;52.68
18569;BME280;14780;48.316;-1.050;2023-09-12T06:18:52;98895.75;;;25.84;52.64
18569;BME280;14780;48.316;-1.050;2023-09-12T06:21:38;98905.59;;;25.85;52.78
18569;BME280;14780;48.316;-1.050;2023-09-12T06:24:22;98914.94;;;25.89;52.85
18569;BME280;14780;48.316;-1.050;2023-09-12T06:27:08;98907.28;;;25.86;53.11
18569;BME280;14780;48.316;-1.050;2023-09-12T06:29:53;98921.38;;;26.03;53.37
18569;BME280;14780;48.316;-1.050;2023-09-12T06:32:38;98921.41;;;25.98;53.72
18569;BME280;14780;48.316;-1.050;2023-09-12T06:35:23;98926.38;;;25.96;53.24
18569;BME280;14780;48.316;-1.050;2023-09-12T06:38:08;98933.84;;;25.91;53.36
18569;BME280;14780;48.316;-1.050;2023-09-12T06:40:53;98928.13;;;25.82;53.82
18569;BME280;14780;48.316;-1.050;2023-09-12T06:43:37;98926.50;;;25.81;53.65
18569;BME280;14780;48.316;-1.050;2023-09-12T06:46:22;98925.91;;;25.84;53.33
18569;BME280;14780;48.316;-1.050;2023-09-12T06:49:06;98936.38;;;25.77;53.50
18569;BME280;14780;48.316;-1.050;2023-09-12T06:51:51;98933.38;;;25.79;53.19
18569;BME280;14780;48.316;-1.050;2023-09-12T06:54:36;98939.72;;;25.74;53.35
18569;BME280;14780;48.316;-1.050;2023-09-12T06:57:21;98939.03;;;25.59;53.48
18569;BME280;14780;48.316;-1.050;2023-09-12T07:00:06;98944.19;;;25.65;53.40
18569;BME280;14780;48.316;-1.050;2023-09-12T07:02:52;98937.97;;;25.55;53.47
18569;BME280;14780;48.316;-1.050;2023-09-12T07:05:37;98953.25;;;25.61;53.14
18569;BME280;14780;48.316;-1.050;2023-09-12T07:08:23;98956.59;;;25.53;53.24
18569;BME280;14780;48.316;-1.050;2023-09-12T07:11:07;98959.31;;;25.58;53.32
18569;BME280;14780;48.316;-1.050;2023-09-12T07:13:52;98960.19;;;25.48;53.38
18569;BME280;14780;48.316;-1.050;2023-09-12T07:16:37;98955.31;;;25.45;53.65
18569;BME280;14780;48.316;-1.050;2023-09-12T07:19:22;98963.28;;;25.42;53.65
18569;BME280;14780;48.316;-1.050;2023-09-12T07:22:06;98960.25;;;25.43;53.70
18569;BME280;14780;48.316;-1.050;2023-09-12T07:24:51;98972.13;;;25.29;54.06
18569;BME280;14780;48.316;-1.050;2023-09-12T07:27:36;98968.53;;;25.33;54.08
18569;BME280;14780;48.316;-1.050;2023-09-12T07:30:20;98969.06;;;25.35;53.97
18569;BME280;14780;48.316;-1.050;2023-09-12T07:33:05;98969.13;;;25.25;54.17
18569;BME280;14780;48.316;-1.050;2023-09-12T07:35:52;98964.13;;;25.37;54.05
18569;BME280;14780;48.316;-1.050;2023-09-12T07:38:38;98964.94;;;25.38;54.06
18569;BME280;14780;48.316;-1.050;2023-09-12T07:41:22;98964.94;;;25.38;53.88
18569;BME280;14780;48.316;-1.050;2023-09-12T07:44:07;98961.66;;;25.36;54.04
18569;BME280;14780;48.316;-1.050;2023-09-12T07:46:55;98954.03;;;25.33;54.09
18569;BME280;14780;48.316;-1.050;2023-09-12T07:49:40;98955.41;;;25.30;54.02
18569;BME280;14780;48.316;-1.050;2023-09-12T07:52:24;98964.78;;;25.24;54.38
18569;BME280;14780;48.316;-1.050;2023-09-12T07:55:09;98957.94;;;25.17;54.49
18569;BME280;14780;48.316;-1.050;2023-09-12T07:57:54;98960.41;;;25.13;54.56
18569;BME280;14780;48.316;-1.050;2023-09-12T08:00:39;98954.41;;;25.11;54.51
18569;BME280;14780;48.316;-1.050;2023-09-12T08:03:24;98959.34;;;25.14;54.65
18569;BME280;14780;48.316;-1.050;2023-09-12T08:06:09;98962.66;;;25.06;55.06
18569;BME280;14780;48.316;-1.050;2023-09-12T08:08:54;98967.03;;;25.07;54.81
18569;BME280;14780;48.316;-1.050;2023-09-12T08:11:38;98960.72;;;25.12;54.65
18569;BME280;14780;48.316;-1.050;2023-09-12T08:14:23;98957.41;;;25.10;55.21
18569;BME280;14780;48.316;-1.050;2023-09-12T08:17:07;98956.13;;;25.02;55.33
18569;BME280;14780;48.316;-1.050;2023-09-12T08:19:52;98959.28;;;25.19;55.03
18569;BME280;14780;48.316;-1.050;2023-09-12T08:22:37;98965.09;;;25.13;55.22
18569;BME280;14780;48.316;-1.050;2023-09-12T08:25:22;98961.78;;;25.16;55.06
18569;BME280;14780;48.316;-1.050;2023-09-12T08:28:09;98965.63;;;25.15;55.09
18569;BME280;14780;48.316;-1.050;2023-09-12T08:30:53;98967.03;;;25.07;55.21
18569;BME280;14780;48.316;-1.050;2023-09-12T08:33:38;98968.44;;;25.05;55.44
18569;BME280;14780;48.316;-1.050;2023-09-12T08:36:23;98965.38;;;25.06;55.41
18569;BME280;14780;48.316;-1.050;2023-09-12T08:39:13;98967.56;;;25.09;55.22
18569;BME280;14780;48.316;-1.050;2023-09-12T08:42:00;98973.31;;;25.08;55.68
18569;BME280;14780;48.316;-1.050;2023-09-12T08:44:45;98966.75;;;25.09;55.58
18569;BME280;14780;48.316;-1.050;2023-09-12T08:47:31;98966.22;;;25.07;55.60
18569;BME280;14780;48.316;-1.050;2023-09-12T08:50:17;98969.78;;;25.07;55.84
18569;BME280;14780;48.316;-1.050;2023-09-12T08:53:02;98957.16;;;25.06;55.78
18569;BME280;14780;48.316;-1.050;2023-09-12T08:55:48;98955.78;;;25.14;55.52
18569;BME280;14780;48.316;-1.050;2023-09-12T08:58:34;98958.22;;;25.15;55.73
18569;BME280;14780;48.316;-1.050;2023-09-12T09:01:19;98959.34;;;25.14;55.92
18569;BME280;14780;48.316;-1.050;2023-09-12T09:04:05;98946.44;;;25.20;56.00
18569;BME280;14780;48.316;-1.050;2023-09-12T09:06:51;98954.13;;;25.18;56.25
18569;BME280;14780;48.316;-1.050;2023-09-12T09:09:36;98961.25;;;25.14;56.80
18569;BME280;14780;48.316;-1.050;2023-09-12T09:12:20;98959.59;;;25.18;56.56
18569;BME280;14780;48.316;-1.050;2023-09-12T09:15:40;98964.25;;;25.22;56.52
18569;BME280;14780;48.316;-1.050;2023-09-12T09:18:28;98966.38;;;25.30;56.34
18569;BME280;14780;48.316;-1.050;2023-09-12T09:21:21;98964.44;;;25.31;56.29
18569;BME280;14780;48.316;-1.050;2023-09-12T09:24:11;98958.16;;;25.30;56.40
18569;BME280;14780;48.316;-1.050;2023-09-12T09:26:55;98973.47;;;25.36;56.30
18569;BME280;14780;48.316;-1.050;2023-09-12T09:29:48;98970.50;;;25.28;56.63
18569;BME280;14780;48.316;-1.050;2023-09-12T09:32:33;98967.47;;;25.29;56.88
18569;BME280;14780;48.316;-1.050;2023-09-12T09:35:18;98971.22;;;25.43;56.89
18569;BME280;14780;48.316;-1.050;2023-09-12T09:38:05;98963.53;;;25.45;56.86
18569;BME280;14780;48.316;-1.050;2023-09-12T09:40:50;98967.56;;;25.53;56.57
18569;BME280;14780;48.316;-1.050;2023-09-12T09:43:35;98965.66;;;25.53;56.75
18569;BME280;14780;48.316;-1.050;2023-09-12T09:46:20;98964.50;;;25.59;56.56
18569;BME280;14780;48.316;-1.050;2023-09-12T09:49:05;98967.00;;;25.56;57.25
18569;BME280;14780;48.316;-1.050;2023-09-12T09:51:51;98972.47;;;25.56;57.40
18569;BME280;14780;48.316;-1.050;2023-09-12T09:54:44;98965.03;;;25.61;57.14
18569;BME280;14780;48.316;-1.050;2023-09-12T09:57:29;98969.41;;;25.62;57.33
18569;BME280;14780;48.316;-1.050;2023-09-12T10:00:15;98969.91;;;25.69;57.11
18569;BME280;14780;48.316;-1.050;2023-09-12T10:03:00;98962.16;;;25.76;57.01
18569;BME280;14780;48.316;-1.050;2023-09-12T10:05:46;98970.97;;;25.73;57.12
18569;BME280;14780;48.316;-1.050;2023-09-12T10:08:34;98964.13;;;25.71;57.35
18569;BME280;14780;48.316;-1.050;2023-09-12T10:11:24;98971.00;;;25.68;57.30
18569;BME280;14780;48.316;-1.050;2023-09-12T10:14:10;98968.78;;;25.70;56.91
18569;BME280;14780;48.316;-1.050;2023-09-12T10:17:03;98972.38;;;25.66;56.95
18569;BME280;14780;48.316;-1.050;2023-09-12T10:19:54;98969.03;;;25.74;56.79
18569;BME280;14780;48.316;-1.050;2023-09-12T10:22:43;98968.75;;;25.75;56.71
18569;BME280;14780;48.316;-1.050;2023-09-12T10:25:36;98973.22;;;25.66;56.83
18569;BME280;14780;48.316;-1.050;2023-09-12T10:28:22;98969.38;;;25.67;56.98
18569;BME280;14780;48.316;-1.050;2023-09-12T10:31:11;98972.63;;;25.69;56.72
18569;BME280;14780;48.316;-1.050;2023-09-12T10:33:57;98964.41;;;25.69;56.54
18569;BME280;14780;48.316;-1.050;2023-09-12T10:36:43;98975.13;;;25.66;56.40
18569;BME280;14780;48.316;-1.050;2023-09-12T10:39:31;98979.19;;;25.73;56.21
18569;BME280;14780;48.316;-1.050;2023-09-12T10:42:17;98973.13;;;25.76;56.14
18569;BME280;14780;48.316;-1.050;2023-09-12T10:45:04;98977.06;;;25.65;56.75
18569;BME280;14780;48.316;-1.050;2023-09-12T10:47:51;98969.28;;;25.77;56.33
18569;BME280;14780;48.316;-1.050;2023-09-12T10:50:38;98976.09;;;25.80;56.33
18569;BME280;14780;48.316;-1.050;2023-09-12T10:53:24;98976.94;;;25.80;56.20
18569;BME280;14780;48.316;-1.050;2023-09-12T10:56:17;98981.63;;;25.75;56.23
18569;BME280;14780;48.316;-1.050;2023-09-12T11:01:54;98979.44;;;25.77;55.63
18569;BME280;14780;48.316;-1.050;2023-09-12T11:04:39;98978.56;;;25.81;55.62
18569;BME280;14780;48.316;-1.050;2023-09-12T11:10:26;98977.38;;;25.92;55.34
18569;BME280;14780;48.316;-1.050;2023-09-12T11:13:20;98977.34;;;25.97;54.87
18569;BME280;14780;48.316;-1.050;2023-09-12T11:16:12;98975.75;;;25.91;54.63
18569;BME280;14780;48.316;-1.050;2023-09-12T11:19:17;98979.63;;;25.85;54.54
18569;BME280;14780;48.316;-1.050;2023-09-12T11:25:25;98971.34;;;25.95;53.95
18569;BME280;14780;48.316;-1.050;2023-09-12T11:28:10;98987.22;;;25.98;54.28
18569;BME280;14780;48.316;-1.050;2023-09-12T11:30:56;98980.63;;;25.99;54.04
18569;BME280;14780;48.316;-1.050;2023-09-12T11:33:44;98982.72;;;26.07;53.98
18569;BME280;14780;48.316;-1.050;2023-09-12T11:36:29;98986.66;;;26.01;53.58
18569;BME280;14780;48.316;-1.050;2023-09-12T11:39:24;98988.34;;;25.92;53.71
18569;BME280;14780;48.316;-1.050;2023-09-12T11:42:11;98982.63;;;25.89;53.75
18569;BME280;14780;48.316;-1.050;2023-09-12T11:44:58;98987.56;;;25.92;53.22
18569;BME280;14780;48.316;-1.050;2023-09-12T11:47:44;98990.09;;;25.78;53.33
18569;BME280;14780;48.316;-1.050;2023-09-12T11:50:34;98989.53;;;25.81;53.12
18569;BME280;14780;48.316;-1.050;2023-09-12T11:53:28;98994.97;;;25.86;52.85
18569;BME280;14780;48.316;-1.050;2023-09-12T11:56:15;98979.34;;;25.92;52.96
18569;BME280;14780;48.316;-1.050;2023-09-12T11:59:00;98988.91;;;25.94;53.06
18569;BME280;14780;48.316;-1.050;2023-09-12T12:01:45;98985.94;;;25.91;52.83
18569;BME280;14780;48.316;-1.050;2023-09-12T12:04:32;98985.56;;;25.97;52.95
18569;BME280;14780;48.316;-1.050;2023-09-12T12:07:17;98986.78;;;25.81;53.47
18569;BME280;14780;48.316;-1.050;2023-09-12T12:10:01;98975.25;;;25.84;52.94
18569;BME280;14780;48.316;-1.050;2023-09-12T12:12:48;98977.47;;;25.82;52.62
18569;BME280;14780;48.316;-1.050;2023-09-12T12:15:36;98983.19;;;25.86;52.80
18569;BME280;14780;48.316;-1.050;2023-09-12T12:18:21;98974.38;;;25.94;52.63
18569;BME280;14780;48.316;-1.050;2023-09-12T12:21:05;98978.97;;;25.98;52.49
18569;BME280;14780;48.316;-1.050;2023-09-12T12:23:58;98977.88;;;25.99;52.48
18569;BME280;14780;48.316;-1.050;2023-09-12T12:26:44;98987.50;;;25.97;52.52
18569;BME280;14780;48.316;-1.050;2023-09-12T12:29:29;98978.97;;;25.98;52.66
18569;BME280;14780;48.316;-1.050;2023-09-12T12:32:16;98979.34;;;25.87;52.33
18569;BME280;14780;48.316;-1.050;2023-09-12T12:35:01;98981.41;;;26.05;52.37
18569;BME280;14780;48.316;-1.050;2023-09-12T12:37:49;98976.69;;;26.10;52.38
18569;BME280;14780;48.316;-1.050;2023-09-12T12:40:38;98974.19;;;26.14;52.45
18569;BME280;14780;48.316;-1.050;2023-09-12T12:43:25;98975.09;;;26.04;52.28
18569;BME280;14780;48.316;-1.050;2023-09-12T12:46:12;98977.78;;;26.09;52.06
18569;BME280;14780;48.316;-1.050;2023-09-12T12:48:57;98973.41;;;26.08;52.01
18569;BME280;14780;48.316;-1.050;2023-09-12T12:51:42;98973.47;;;26.03;51.67
18569;BME280;14780;48.316;-1.050;2023-09-12T12:54:31;98973.34;;;26.13;51.77
18569;BME280;14780;48.316;-1.050;2023-09-12T12:57:20;98968.09;;;26.17;51.43
18569;BME280;14780;48.316;-1.050;2023-09-12T13:00:07;98972.78;;;26.16;51.64
18569;BME280;14780;48.316;-1.050;2023-09-12T13:02:52;98973.41;;;26.08;51.71
18569;BME280;14780;48.316;-1.050;2023-09-12T13:05:37;98966.47;;;26.16;51.33
18569;BME280;14780;48.316;-1.050;2023-09-12T13:08:22;98967.94;;;26.08;51.49
18569;BME280;14780;48.316;-1.050;2023-09-12T13:11:07;98965.75;;;26.05;51.37
18569;BME280;14780;48.316;-1.050;2023-09-12T13:13:52;98968.97;;;26.12;51.49
18569;BME280;14780;48.316;-1.050;2023-09-12T13:16:37;98963.53;;;26.07;51.41
18569;BME280;14780;48.316;-1.050;2023-09-12T13:19:24;98963.78;;;26.11;51.36
18569;BME280;14780;48.316;-1.050;2023-09-12T13:22:09;98968.94;;;26.17;51.32
18569;BME280;14780;48.316;-1.050;2023-09-12T13:24:54;98972.56;;;26.13;51.01
18569;BME280;14780;48.316;-1.050;2023-09-12T13:27:39;98979.50;;;26.00;50.92
18569;BME280;14780;48.316;-1.050;2023-09-12T13:30:23;98973.94;;;26.10;50.92
18569;BME280;14780;48.316;-1.050;2023-09-12T13:33:08;98977.84;;;26.04;51.28
18569;BME280;14780;48.316;-1.050;2023-09-12T13:35:53;98973.41;;;26.08;51.40
18569;BME280;14780;48.316;-1.050;2023-09-12T13:38:38;98977.19;;;26.12;51.41
18569;BME280;14780;48.316;-1.050;2023-09-12T13:41:22;98980.47;;;26.14;51.33
18569;BME280;14780;48.316;-1.050;2023-09-12T13:44:08;98974.41;;;26.17;51.32
18569;BME280;14780;48.316;-1.050;2023-09-12T13:46:52;98982.16;;;26.10;51.55
18569;BME280;14780;48.316;-1.050;2023-09-12T13:49:37;98978.59;;;26.10;51.51
18569;BME280;14780;48.316;-1.050;2023-09-12T13:52:26;98973.34;;;26.13;51.66
18569;BME280;14780;48.316;-1.050;2023-09-12T13:55:11;98980.13;;;26.21;51.71
18569;BME280;14780;48.316;-1.050;2023-09-12T13:57:58;98973.25;;;26.23;51.76
18569;BME280;14780;48.316;-1.050;2023-09-12T14:00:44;98963.22;;;26.14;52.02
18569;BME280;14780;48.316;-1.050;2023-09-12T14:03:29;98968.34;;;26.20;52.12
18569;BME280;14780;48.316;-1.050;2023-09-12T14:06:13;98972.06;;;26.29;51.96
18569;BME280;14780;48.316;-1.050;2023-09-12T14:08:58;98972.78;;;26.16;51.79
18569;BME280;14780;48.316;-1.050;2023-09-12T14:11:43;98973.34;;;26.13;51.30
18569;BME280;14780;48.316;-1.050;2023-09-12T14:14:28;98967.69;;;26.05;51.18
18569;BME280;14780;48.316;-1.050;2023-09-12T14:17:12;98969.84;;;26.08;50.80
18569;BME280;14780;48.316;-1.050;2023-09-12T14:19:57;98969.81;;;26.13;50.85
18569;BME280;14780;48.316;-1.050;2023-09-12T14:22:42;98970.56;;;26.18;50.80
18569;BME280;14780;48.316;-1.050;2023-09-12T14:25:28;98960.88;;;26.26;50.73
18569;BME280;14780;48.316;-1.050;2023-09-12T14:28:13;98966.72;;;26.19;50.92
18569;BME280;14780;48.316;-1.050;2023-09-12T14:30:57;98958.34;;;26.29;50.82
18569;BME280;14780;48.316;-1.050;2023-09-12T14:33:42;98956.31;;;26.40;50.77
18569;BME280;14780;48.316;-1.050;2023-09-12T14:36:28;98953.34;;;26.36;51.45
18569;BME280;14780;48.316;-1.050;2023-09-12T14:39:13;98948.63;;;26.42;51.13